sensor_id;sensor_type;location;lat;lon;timestamp;pressure;altitude;pressure_sealevel;temperature;humidity
64841;BME280;51307;52.162;7.560;2023-02-11T00:01:32;102751.69;;;6.06;65.08
64841;BME280;51307;52.162;7.560;2023-02-11T00:03:59;102755.69;;;5.98;65.56
64841;BME280;51307;52.162;7.560;2023-02-11T00:06:27;102736.94;;;6.01;65.54
64841;BME280;51307;52.162;7.560;2023-02-11T00:08:54;102726.16;;;6.20;65.21
64841;BME280;51307;52.162;7.560;2023-02-11T00:11:21;102728.28;;;6.13;65.38
64841;BME280;51307;52.162;7.560;2023-02-11T00:13:47;102728.28;;;5.97;66.04
64841;BME280;51307;52.162;7.560;2023-02-11T00:16:19;102733.78;;;5.77;66.75
64841;BME280;51307;52.162;7.560;2023-02-11T00:18:45;102753.66;;;6.03;66.63
64841;BME280;51307;52.162;7.560;2023-02-11T00:21:13;102755.91;;;5.77;67.15
64841;BME280;51307;52.162;7.560;2023-02-11T00:23:40;102757.34;;;6.00;66.63
64841;BME280;51307;52.162;7.560;2023-02-11T00:26:20;102753.44;;;5.90;66.76
64841;BME280;51307;52.162;7.560;2023-02-11T00:28:46;102761.59;;;5.87;66.71
64841;BME280;51307;52.162;7.560;2023-02-11T00:31:14;102762.44;;;5.87;66.71
64841;BME280;51307;52.162;7.560;2023-02-11T00:33:40;102747.41;;;6.04;66.25
64841;BME280;51307;52.162;7.560;2023-02-11T00:36:09;102741.97;;;5.89;66.93
64841;BME280;51307;52.162;7.560;2023-02-11T00:38:35;102748.44;;;5.68;67.29
64841;BME280;51307;52.162;7.560;2023-02-11T00:41:01;102750.38;;;5.98;66.23
64841;BME280;51307;52.162;7.560;2023-02-11T00:43:26;102746.59;;;5.86;66.47
64841;BME280;51307;52.162;7.560;2023-02-11T00:45:52;102744.97;;;5.99;65.91
64841;BME280;51307;52.162;7.560;2023-02-11T00:48:17;102745.69;;;5.69;66.55
64841;BME280;51307;52.162;7.560;2023-02-11T00:50:43;102737.00;;;5.99;65.95
64841;BME280;51307;52.162;7.560;2023-02-11T00:53:09;102734.09;;;5.88;66.25
64841;BME280;51307;52.162;7.560;2023-02-11T00:55:34;102737.75;;;5.85;66.38
64841;BME280;51307;52.162;7.560;2023-02-11T00:58:00;102733.50;;;5.65;66.60
64841;BME280;51307;52.162;7.560;2023-02-11T01:00:26;102736.84;;;6.02;65.81
64841;BME280;51307;52.162;7.560;2023-02-11T01:02:53;102738.34;;;6.08;65.56
64841;BME280;51307;52.162;7.560;2023-02-11T01:05:19;102756.91;;;5.92;66.03
64841;BME280;51307;52.162;7.560;2023-02-11T01:07:45;102751.16;;;6.00;65.50
64841;BME280;51307;52.162;7.560;2023-02-11T01:10:11;102757.47;;;5.81;65.88
64841;BME280;51307;52.162;7.560;2023-02-11T01:12:37;102754.28;;;6.08;65.09
64841;BME280;51307;52.162;7.560;2023-02-11T01:15:05;102744.00;;;6.18;65.12
64841;BME280;51307;52.162;7.560;2023-02-11T01:17:32;102732.41;;;6.03;64.98
64841;BME280;51307;52.162;7.560;2023-02-11T01:19:58;102714.50;;;6.22;64.44
64841;BME280;51307;52.162;7.560;2023-02-11T01:22:23;102708.19;;;5.92;65.31
64841;BME280;51307;52.162;7.560;2023-02-11T01:24:49;102707.78;;;5.99;65.08
64841;BME280;51307;52.162;7.560;2023-02-11T01:27:14;102707.44;;;5.89;65.22
64841;BME280;51307;52.162;7.560;2023-02-11T01:29:40;102694.38;;;5.85;65.24
64841;BME280;51307;52.162;7.560;2023-02-11T01:32:05;102693.38;;;6.03;64.62
64841;BME280;51307;52.162;7.560;2023-02-11T01:34:31;102696.75;;;6.23;64.25
64841;BME280;51307;52.162;7.560;2023-02-11T01:36:57;102708.94;;;6.27;64.46
64841;BME280;51307;52.162;7.560;2023-02-11T01:39:23;102715.47;;;6.21;64.48
64841;BME280;51307;52.162;7.560;2023-02-11T01:41:49;102721.69;;;6.04;64.94
64841;BME280;51307;52.162;7.560;2023-02-11T01:44:36;102719.91;;;6.21;64.14
64841;BME280;51307;52.162;7.560;2023-02-11T01:47:02;102719.72;;;6.24;64.02
64841;BME280;51307;52.162;7.560;2023-02-11T01:49:33;102710.38;;;6.33;63.92
64841;BME280;51307;52.162;7.560;2023-02-11T01:52:17;102697.28;;;6.46;63.61
64841;BME280;51307;52.162;7.560;2023-02-11T01:54:48;102704.72;;;6.07;64.48
64841;BME280;51307;52.162;7.560;2023-02-11T01:57:36;102698.28;;;6.11;64.62
64841;BME280;51307;52.162;7.560;2023-02-11T02:05:23;102690.94;;;6.32;63.89
64841;BME280;51307;52.162;7.560;2023-02-11T02:07:57;102696.97;;;6.02;64.79
64841;BME280;51307;52.162;7.560;2023-02-11T02:10:28;102706.69;;;6.19;64.33
64841;BME280;51307;52.162;7.560;2023-02-11T02:12:56;102704.13;;;6.18;64.17
64841;BME280;51307;52.162;7.560;2023-02-11T02:15:32;102692.78;;;5.98;64.82
64841;BME280;51307;52.162;7.560;2023-02-11T02:18:02;102676.75;;;6.32;63.77
64841;BME280;51307;52.162;7.560;2023-02-11T02:28:59;102686.63;;;6.14;64.23
64841;BME280;51307;52.162;7.560;2023-02-11T02:31:58;102675.22;;;6.12;64.38
64841;BME280;51307;52.162;7.560;2023-02-11T02:37:19;102660.81;;;6.32;63.92
64841;BME280;51307;52.162;7.560;2023-02-11T02:39:49;102675.56;;;6.05;64.35
64841;BME280;51307;52.162;7.560;2023-02-11T02:42:17;102664.44;;;6.15;64.01
64841;BME280;51307;52.162;7.560;2023-02-11T02:44:51;102675.38;;;5.93;65.15
64841;BME280;51307;52.162;7.560;2023-02-11T02:47:17;102674.03;;;6.01;64.98
64841;BME280;51307;52.162;7.560;2023-02-11T02:49:43;102664.69;;;6.26;63.83
64841;BME280;51307;52.162;7.560;2023-02-11T02:52:17;102684.56;;;6.03;64.48
64841;BME280;51307;52.162;7.560;2023-02-11T02:55:08;102675.06;;;5.99;64.78
64841;BME280;51307;52.162;7.560;2023-02-11T02:57:59;102681.91;;;6.03;64.46
64841;BME280;51307;52.162;7.560;2023-02-11T03:03:24;102674.38;;;6.11;64.31
64841;BME280;51307;52.162;7.560;2023-02-11T03:06:00;102670.94;;;6.09;64.33
64841;BME280;51307;52.162;7.560;2023-02-11T03:08:56;102660.66;;;6.19;64.25
64841;BME280;51307;52.162;7.560;2023-02-11T03:11:21;102655.50;;;6.16;63.89
64841;BME280;51307;52.162;7.560;2023-02-11T03:13:49;102661.94;;;6.28;63.91
64841;BME280;51307;52.162;7.560;2023-02-11T03:16:21;102663.91;;;6.40;63.45
64841;BME280;51307;52.162;7.560;2023-02-11T03:18:58;102662.91;;;6.11;64.30
64841;BME280;51307;52.162;7.560;2023-02-11T03:21:24;102663.75;;;6.43;63.62
64841;BME280;51307;52.162;7.560;2023-02-11T03:23:57;102664.75;;;6.40;63.49
64841;BME280;51307;52.162;7.560;2023-02-11T03:26:47;102668.47;;;6.22;64.23
64841;BME280;51307;52.162;7.560;2023-02-11T03:29:24;102666.63;;;6.38;63.62
64841;BME280;51307;52.162;7.560;2023-02-11T03:32:03;102652.22;;;6.27;63.71
64841;BME280;51307;52.162;7.560;2023-02-11T03:34:45;102656.00;;;6.38;63.46
64841;BME280;51307;52.162;7.560;2023-02-11T03:37:30;102661.50;;;6.51;63.12
64841;BME280;51307;52.162;7.560;2023-02-11T03:40:19;102660.81;;;6.32;63.65
64841;BME280;51307;52.162;7.560;2023-02-11T03:42:52;102661.00;;;6.29;63.76
64841;BME280;51307;52.162;7.560;2023-02-11T03:45:22;102663.91;;;6.08;64.15
64841;BME280;51307;52.162;7.560;2023-02-11T03:48:25;102671.22;;;6.36;63.47
64841;BME280;51307;52.162;7.560;2023-02-11T03:50:57;102659.38;;;6.26;64.08
64841;BME280;51307;52.162;7.560;2023-02-11T03:53:24;102663.06;;;6.23;64.00
64841;BME280;51307;52.162;7.560;2023-02-11T03:55:53;102663.75;;;6.27;63.76
64841;BME280;51307;52.162;7.560;2023-02-11T03:58:21;102670.28;;;6.21;64.21
64841;BME280;51307;52.162;7.560;2023-02-11T04:00:47;102673.00;;;6.04;64.27
64841;BME280;51307;52.162;7.560;2023-02-11T04:03:12;102683.88;;;6.15;64.37
64841;BME280;51307;52.162;7.560;2023-02-11T04:05:38;102689.53;;;5.93;64.88
64841;BME280;51307;52.162;7.560;2023-02-11T04:08:04;102677.97;;;6.26;64.00
64841;BME280;51307;52.162;7.560;2023-02-11T04:10:30;102673.97;;;6.19;64.31
64841;BME280;51307;52.162;7.560;2023-02-11T04:12:56;102671.28;;;6.19;64.24
64841;BME280;51307;52.162;7.560;2023-02-11T04:15:21;102674.88;;;6.18;63.98
64841;BME280;51307;52.162;7.560;2023-02-11T04:17:47;102671.72;;;6.27;63.92
64841;BME280;51307;52.162;7.560;2023-02-11T04:20:12;102672.91;;;6.05;64.48
64841;BME280;51307;52.162;7.560;2023-02-11T04:22:38;102657.72;;;6.07;64.70
64841;BME280;51307;52.162;7.560;2023-02-11T04:25:05;102652.41;;;6.07;64.37
64841;BME280;51307;52.162;7.560;2023-02-11T04:27:31;102653.25;;;6.24;64.25
64841;BME280;51307;52.162;7.560;2023-02-11T04:29:56;102659.97;;;6.15;64.28
64841;BME280;51307;52.162;7.560;2023-02-11T04:32:22;102661.25;;;6.08;64.45
64841;BME280;51307;52.162;7.560;2023-02-11T04:34:47;102656.88;;;6.23;64.47
64841;BME280;51307;52.162;7.560;2023-02-11T04:37:13;102664.34;;;6.00;64.81
64841;BME280;51307;52.162;7.560;2023-02-11T04:39:39;102661.69;;;6.00;65.16
64841;BME280;51307;52.162;7.560;2023-02-11T04:42:05;102656.88;;;6.07;64.72
64841;BME280;51307;52.162;7.560;2023-02-11T04:44:30;102657.91;;;6.04;64.85
64841;BME280;51307;52.162;7.560;2023-02-11T04:46:56;102664.25;;;6.18;64.60
64841;BME280;51307;52.162;7.560;2023-02-11T04:49:21;102677.94;;;5.94;65.01
64841;BME280;51307;52.162;7.560;2023-02-11T04:51:47;102671.13;;;6.22;64.58
64841;BME280;51307;52.162;7.560;2023-02-11T04:54:12;102680.00;;;6.05;65.05
64841;BME280;51307;52.162;7.560;2023-02-11T04:56:38;102672.81;;;5.91;65.52
64841;BME280;51307;52.162;7.560;2023-02-11T04:59:05;102673.41;;;5.96;65.41
64841;BME280;51307;52.162;7.560;2023-02-11T05:01:31;102666.81;;;6.03;65.31
64841;BME280;51307;52.162;7.560;2023-02-11T05:03:57;102667.75;;;6.02;65.06
64841;BME280;51307;52.162;7.560;2023-02-11T05:06:23;102675.38;;;5.93;65.70
64841;BME280;51307;52.162;7.560;2023-02-11T05:08:49;102667.25;;;6.28;64.53
64841;BME280;51307;52.162;7.560;2023-02-11T05:11:17;102671.00;;;5.76;65.92
64841;BME280;51307;52.162;7.560;2023-02-11T05:13:43;102670.69;;;6.30;64.63
64841;BME280;51307;52.162;7.560;2023-02-11T05:16:09;102664.31;;;5.84;65.55
64841;BME280;51307;52.162;7.560;2023-02-11T05:18:37;102676.50;;;6.04;65.00
64841;BME280;51307;52.162;7.560;2023-02-11T05:21:07;102668.28;;;5.93;65.24
64841;BME280;51307;52.162;7.560;2023-02-11T05:23:33;102675.41;;;6.09;65.04
64841;BME280;51307;52.162;7.560;2023-02-11T05:25:59;102671.88;;;5.92;65.37
64841;BME280;51307;52.162;7.560;2023-02-11T05:28:24;102676.50;;;6.04;65.05
64841;BME280;51307;52.162;7.560;2023-02-11T05:30:50;102678.97;;;5.76;65.99
64841;BME280;51307;52.162;7.560;2023-02-11T05:33:15;102676.69;;;6.01;65.29
64841;BME280;51307;52.162;7.560;2023-02-11T05:35:41;102664.16;;;6.19;64.91
64841;BME280;51307;52.162;7.560;2023-02-11T05:38:06;102680.63;;;6.10;64.79
64841;BME280;51307;52.162;7.560;2023-02-11T05:40:32;102667.66;;;5.88;65.50
64841;BME280;51307;52.162;7.560;2023-02-11T05:42:57;102665.88;;;6.04;65.19
64841;BME280;51307;52.162;7.560;2023-02-11T05:45:23;102672.53;;;5.96;65.47
64841;BME280;51307;52.162;7.560;2023-02-11T05:47:48;102679.00;;;6.07;65.08
64841;BME280;51307;52.162;7.560;2023-02-11T05:50:14;102673.50;;;5.95;65.57
64841;BME280;51307;52.162;7.560;2023-02-11T05:52:39;102665.63;;;6.25;64.76
64841;BME280;51307;52.162;7.560;2023-02-11T05:55:05;102663.13;;;6.38;64.12
64841;BME280;51307;52.162;7.560;2023-02-11T05:57:30;102668.44;;;6.06;65.19
64841;BME280;51307;52.162;7.560;2023-02-11T05:59:56;102669.47;;;6.19;64.60
64841;BME280;51307;52.162;7.560;2023-02-11T06:02:21;102657.72;;;6.07;64.93
64841;BME280;51307;52.162;7.560;2023-02-11T06:04:47;102667.75;;;6.02;65.14
64841;BME280;51307;52.162;7.560;2023-02-11T06:07:12;102654.75;;;6.30;64.42
64841;BME280;51307;52.162;7.560;2023-02-11T06:09:38;102665.97;;;6.03;65.39
64841;BME280;51307;52.162;7.560;2023-02-11T06:12:03;102665.56;;;6.11;65.02
64841;BME280;51307;52.162;7.560;2023-02-11T06:14:31;102670.25;;;5.89;65.89
64841;BME280;51307;52.162;7.560;2023-02-11T06:16:57;102663.84;;;6.10;65.48
64841;BME280;51307;52.162;7.560;2023-02-11T06:19:23;102663.22;;;6.04;65.53
64841;BME280;51307;52.162;7.560;2023-02-11T06:21:48;102662.91;;;6.11;65.32
64841;BME280;51307;52.162;7.560;2023-02-11T06:24:14;102666.81;;;6.03;65.75
64841;BME280;51307;52.162;7.560;2023-02-11T06:26:39;102651.22;;;6.13;65.50
64841;BME280;51307;52.162;7.560;2023-02-11T06:29:05;102663.38;;;5.85;66.13
64841;BME280;51307;52.162;7.560;2023-02-11T06:31:30;102663.53;;;5.98;65.81
64841;BME280;51307;52.162;7.560;2023-02-11T06:33:56;102662.53;;;6.17;65.12
64841;BME280;51307;52.162;7.560;2023-02-11T06:36:22;102661.09;;;6.27;65.04
64841;BME280;51307;52.162;7.560;2023-02-11T06:38:49;102663.13;;;5.90;65.96
64841;BME280;51307;52.162;7.560;2023-02-11T06:41:17;102667.31;;;5.94;65.94
64841;BME280;51307;52.162;7.560;2023-02-11T06:43:44;102657.72;;;6.23;65.36
64841;BME280;51307;52.162;7.560;2023-02-11T06:46:10;102664.75;;;6.09;65.08
64841;BME280;51307;52.162;7.560;2023-02-11T06:48:35;102673.31;;;5.82;66.12
64841;BME280;51307;52.162;7.560;2023-02-11T06:51:03;102676.56;;;5.87;66.24
64841;BME280;51307;52.162;7.560;2023-02-11T06:53:30;102673.66;;;6.07;65.95
64841;BME280;51307;52.162;7.560;2023-02-11T06:56:02;102681.31;;;5.98;65.94
64841;BME280;51307;52.162;7.560;2023-02-11T06:58:27;102686.69;;;5.96;66.12
64841;BME280;51307;52.162;7.560;2023-02-11T07:00:53;102687.63;;;5.95;66.29
64841;BME280;51307;52.162;7.560;2023-02-11T07:03:18;102687.13;;;6.04;65.72
64841;BME280;51307;52.162;7.560;2023-02-11T07:05:44;102679.28;;;6.19;65.67
64841;BME280;51307;52.162;7.560;2023-02-11T07:08:09;102685.59;;;6.00;65.89
64841;BME280;51307;52.162;7.560;2023-02-11T07:10:35;102668.19;;;6.27;65.57
64841;BME280;51307;52.162;7.560;2023-02-11T07:13:00;102663.84;;;6.10;65.72
64841;BME280;51307;52.162;7.560;2023-02-11T07:15:26;102677.13;;;6.10;66.20
64841;BME280;51307;52.162;7.560;2023-02-11T07:17:51;102669.81;;;5.97;66.43
64841;BME280;51307;52.162;7.560;2023-02-11T07:20:17;102667.94;;;5.99;66.46
64841;BME280;51307;52.162;7.560;2023-02-11T07:22:42;102674.84;;;5.86;66.94
64841;BME280;51307;52.162;7.560;2023-02-11T07:25:08;102672.66;;;6.26;65.69
64841;BME280;51307;52.162;7.560;2023-02-11T07:27:34;102668.09;;;5.96;66.40
64841;BME280;51307;52.162;7.560;2023-02-11T07:29:59;102675.22;;;6.12;66.47
64841;BME280;51307;52.162;7.560;2023-02-11T07:32:25;102674.19;;;6.14;66.29
64841;BME280;51307;52.162;7.560;2023-02-11T07:34:50;102674.38;;;6.27;66.08
64841;BME280;51307;52.162;7.560;2023-02-11T07:37:16;102682.00;;;6.33;65.89
64841;BME280;51307;52.162;7.560;2023-02-11T07:39:41;102694.16;;;6.37;65.73
64841;BME280;51307;52.162;7.560;2023-02-11T07:42:07;102694.84;;;6.09;66.72
64841;BME280;51307;52.162;7.560;2023-02-11T07:44:32;102693.22;;;6.22;66.54
64841;BME280;51307;52.162;7.560;2023-02-11T07:46:59;102697.94;;;6.49;65.67
64841;BME280;51307;52.162;7.560;2023-02-11T07:49:24;102705.47;;;6.09;67.06
64841;BME280;51307;52.162;7.560;2023-02-11T07:51:50;102712.09;;;6.18;66.94
64841;BME280;51307;52.162;7.560;2023-02-11T07:54:16;102707.56;;;6.04;67.13
64841;BME280;51307;52.162;7.560;2023-02-11T07:56:42;102706.97;;;6.15;67.26
64841;BME280;51307;52.162;7.560;2023-02-11T07:59:07;102710.19;;;6.20;67.06
64841;BME280;51307;52.162;7.560;2023-02-11T08:01:33;102712.50;;;6.10;67.67
64841;BME280;51307;52.162;7.560;2023-02-11T08:04:00;102702.16;;;6.21;67.21
64841;BME280;51307;52.162;7.560;2023-02-11T08:06:29;102699.06;;;6.45;66.50
64841;BME280;51307;52.162;7.560;2023-02-11T08:08:55;102705.94;;;6.17;67.13
64841;BME280;51307;52.162;7.560;2023-02-11T08:11:22;102704.13;;;6.34;67.13
64841;BME280;51307;52.162;7.560;2023-02-11T08:13:49;102713.81;;;6.19;67.53
64841;BME280;51307;52.162;7.560;2023-02-11T08:16:27;102709.81;;;5.94;67.99
64841;BME280;51307;52.162;7.560;2023-02-11T08:18:55;102719.13;;;6.19;67.74
64841;BME280;51307;52.162;7.560;2023-02-11T08:21:22;102714.34;;;6.26;67.45
64841;BME280;51307;52.162;7.560;2023-02-11T08:23:47;102713.38;;;6.27;67.63
64841;BME280;51307;52.162;7.560;2023-02-11T08:26:17;102718.19;;;6.36;67.50
64841;BME280;51307;52.162;7.560;2023-02-11T08:28:44;102722.44;;;6.06;68.19
64841;BME280;51307;52.162;7.560;2023-02-11T08:31:15;102716.47;;;6.19;67.89
64841;BME280;51307;52.162;7.560;2023-02-11T08:33:42;102703.78;;;6.40;67.34
64841;BME280;51307;52.162;7.560;2023-02-11T08:36:29;102718.47;;;6.31;67.79
64841;BME280;51307;52.162;7.560;2023-02-11T08:38:56;102707.47;;;6.37;67.66
64841;BME280;51307;52.162;7.560;2023-02-11T08:41:24;102713.47;;;6.41;67.35
64841;BME280;51307;52.162;7.560;2023-02-11T08:43:50;102712.44;;;6.60;67.01
64841;BME280;51307;52.162;7.560;2023-02-11T08:46:18;102724.38;;;6.52;67.46
64841;BME280;51307;52.162;7.560;2023-02-11T08:48:45;102714.00;;;6.48;67.13
64841;BME280;51307;52.162;7.560;2023-02-11T08:51:17;102720.69;;;6.39;67.62
64841;BME280;51307;52.162;7.560;2023-02-11T08:53:43;102722.38;;;6.56;67.25
64841;BME280;51307;52.162;7.560;2023-02-11T08:56:11;102728.41;;;6.44;67.64
64841;BME280;51307;52.162;7.560;2023-02-11T08:58:36;102738.44;;;6.38;67.91
64841;BME280;51307;52.162;7.560;2023-02-11T09:01:08;102749.16;;;6.37;67.85
64841;BME280;51307;52.162;7.560;2023-02-11T09:03:34;102752.84;;;6.50;67.46
64841;BME280;51307;52.162;7.560;2023-02-11T09:06:04;102752.00;;;6.50;67.77
64841;BME280;51307;52.162;7.560;2023-02-11T09:08:30;102748.66;;;6.62;67.14
64841;BME280;51307;52.162;7.560;2023-02-11T09:10:56;102753.34;;;6.89;66.44
64841;BME280;51307;52.162;7.560;2023-02-11T09:13:21;102759.63;;;6.72;66.94
64841;BME280;51307;52.162;7.560;2023-02-11T09:15:47;102756.72;;;6.45;68.09
64841;BME280;51307;52.162;7.560;2023-02-11T09:18:13;102766.84;;;6.54;67.33
64841;BME280;51307;52.162;7.560;2023-02-11T09:20:38;102764.59;;;6.46;67.96
64841;BME280;51307;52.162;7.560;2023-02-11T09:23:04;102766.75;;;6.71;67.31
64841;BME280;51307;52.162;7.560;2023-02-11T09:25:29;102766.91;;;6.84;66.95
64841;BME280;51307;52.162;7.560;2023-02-11T09:27:55;102775.44;;;6.59;67.62
64841;BME280;51307;52.162;7.560;2023-02-11T09:30:20;102775.34;;;6.61;67.61
64841;BME280;51307;52.162;7.560;2023-02-11T09:32:46;102780.91;;;6.56;67.95
64841;BME280;51307;52.162;7.560;2023-02-11T09:35:11;102776.88;;;6.65;67.76
64841;BME280;51307;52.162;7.560;2023-02-11T09:37:37;102776.09;;;6.63;67.91
64841;BME280;51307;52.162;7.560;2023-02-11T09:40:03;102781.59;;;6.76;67.67
64841;BME280;51307;52.162;7.560;2023-02-11T09:45:39;102779.19;;;6.55;67.94
64841;BME280;51307;52.162;7.560;2023-02-11T09:48:19;102777.91;;;6.46;68.41
64841;BME280;51307;52.162;7.560;2023-02-11T09:50:59;102785.91;;;6.78;67.65
64841;BME280;51307;52.162;7.560;2023-02-11T09:53:28;102795.94;;;6.73;67.77
64841;BME280;51307;52.162;7.560;2023-02-11T09:56:03;102805.28;;;6.64;67.90
64841;BME280;51307;52.162;7.560;2023-02-11T09:58:36;102810.09;;;6.73;68.02
64841;BME280;51307;52.162;7.560;2023-02-11T10:23:45;102857.31;;;6.70;67.77
64841;BME280;51307;52.162;7.560;2023-02-11T10:26:15;102854.75;;;7.16;66.79
64841;BME280;51307;52.162;7.560;2023-02-11T10:28:45;102865.78;;;6.93;67.60
64841;BME280;51307;52.162;7.560;2023-02-11T10:31:20;102860.25;;;6.97;67.27
64841;BME280;51307;52.162;7.560;2023-02-11T10:34:03;102870.34;;;6.74;67.85
64841;BME280;51307;52.162;7.560;2023-02-11T10:36:34;102872.22;;;6.72;68.15
64841;BME280;51307;52.162;7.560;2023-02-11T10:39:19;102877.34;;;6.60;68.41
64841;BME280;51307;52.162;7.560;2023-02-11T10:44:34;102867.22;;;7.00;67.69
64841;BME280;51307;52.162;7.560;2023-02-11T10:47:15;102873.28;;;7.02;67.68
64841;BME280;51307;52.162;7.560;2023-02-11T10:49:44;102870.19;;;6.94;68.00
64841;BME280;51307;52.162;7.560;2023-02-11T10:52:21;102859.31;;;6.98;67.85
64841;BME280;51307;52.162;7.560;2023-02-11T11:00:33;102855.44;;;7.04;67.46
64841;BME280;51307;52.162;7.560;2023-02-11T11:03:24;102861.69;;;7.19;67.45
64841;BME280;51307;52.162;7.560;2023-02-11T11:05:57;102854.94;;;6.97;67.71
64841;BME280;51307;52.162;7.560;2023-02-11T11:11:13;102850.31;;;7.01;67.59
64841;BME280;51307;52.162;7.560;2023-02-11T11:13:52;102851.75;;;7.06;68.03
64841;BME280;51307;52.162;7.560;2023-02-11T11:16:26;102855.78;;;6.98;68.01
64841;BME280;51307;52.162;7.560;2023-02-11T11:19:13;102857.50;;;7.15;67.51
64841;BME280;51307;52.162;7.560;2023-02-11T11:24:21;102863.22;;;7.39;66.75
64841;BME280;51307;52.162;7.560;2023-02-11T11:26:50;102873.28;;;7.18;67.37
64841;BME280;51307;52.162;7.560;2023-02-11T11:29:35;102855.06;;;7.26;67.29
64841;BME280;51307;52.162;7.560;2023-02-11T11:32:19;102855.25;;;7.39;67.21
64841;BME280;51307;52.162;7.560;2023-02-11T11:34:55;102856.81;;;7.11;67.87
64841;BME280;51307;52.162;7.560;2023-02-11T11:37:33;102860.25;;;7.29;67.31
64841;BME280;51307;52.162;7.560;2023-02-11T11:42:37;102868.84;;;7.18;67.97
64841;BME280;51307;52.162;7.560;2023-02-11T11:48:12;102872.59;;;7.30;67.87
64841;BME280;51307;52.162;7.560;2023-02-11T11:50:48;102860.34;;;7.12;68.01
64841;BME280;51307;52.162;7.560;2023-02-11T11:56:09;102843.38;;;7.45;67.44
64841;BME280;51307;52.162;7.560;2023-02-11T11:58:36;102834.22;;;7.18;68.14
64841;BME280;51307;52.162;7.560;2023-02-11T12:03:45;102827.28;;;7.16;68.01
64841;BME280;51307;52.162;7.560;2023-02-11T12:15:31;102830.31;;;7.70;66.51
64841;BME280;51307;52.162;7.560;2023-02-11T12:20:21;102831.09;;;7.72;66.69
64841;BME280;51307;52.162;7.560;2023-02-11T12:23:02;102822.84;;;7.61;67.07
64841;BME280;51307;52.162;7.560;2023-02-11T12:25:42;102836.22;;;7.75;66.50
64841;BME280;51307;52.162;7.560;2023-02-11T12:28:25;102836.38;;;7.58;67.18
64841;BME280;51307;52.162;7.560;2023-02-11T12:31:14;102839.25;;;7.39;67.25
64841;BME280;51307;52.162;7.560;2023-02-11T12:51:15;102839.81;;;7.74;66.93
64841;BME280;51307;52.162;7.560;2023-02-11T12:57:31;102843.50;;;8.02;65.67
64841;BME280;51307;52.162;7.560;2023-02-11T13:02:30;102857.59;;;7.60;66.83
64841;BME280;51307;52.162;7.560;2023-02-11T13:07:44;102842.38;;;8.06;65.95
64841;BME280;51307;52.162;7.560;2023-02-11T13:10:35;102834.34;;;7.92;66.31
64841;BME280;51307;52.162;7.560;2023-02-11T13:13:10;102835.50;;;8.02;65.73
64841;BME280;51307;52.162;7.560;2023-02-11T13:15:54;102836.09;;;8.07;65.56
64841;BME280;51307;52.162;7.560;2023-02-11T13:18:29;102845.03;;;8.06;65.58
64841;BME280;51307;52.162;7.560;2023-02-11T13:29:27;102840.75;;;8.47;64.65
64841;BME280;51307;52.162;7.560;2023-02-11T13:32:20;102830.75;;;8.22;65.41
64841;BME280;51307;52.162;7.560;2023-02-11T13:37:43;102836.19;;;8.35;65.10
64841;BME280;51307;52.162;7.560;2023-02-11T13:43:01;102829.22;;;8.32;64.94
64841;BME280;51307;52.162;7.560;2023-02-11T13:45:45;102833.03;;;8.28;65.40
64841;BME280;51307;52.162;7.560;2023-02-11T13:50:47;102829.91;;;8.36;64.95
64841;BME280;51307;52.162;7.560;2023-02-11T13:53:15;102844.06;;;8.22;65.26
64841;BME280;51307;52.162;7.560;2023-02-11T13:55:48;102841.81;;;8.30;65.16
64841;BME280;51307;52.162;7.560;2023-02-11T14:00:50;102844.50;;;8.30;64.92
64841;BME280;51307;52.162;7.560;2023-02-11T14:19:35;102825.25;;;8.39;64.88
64841;BME280;51307;52.162;7.560;2023-02-11T14:27:42;102833.41;;;8.51;64.76
64841;BME280;51307;52.162;7.560;2023-02-11T14:32:55;102822.38;;;8.57;64.39
64841;BME280;51307;52.162;7.560;2023-02-11T14:40:34;102822.28;;;8.58;64.33
64841;BME280;51307;52.162;7.560;2023-02-11T14:43:40;102831.13;;;8.45;64.65
64841;BME280;51307;52.162;7.560;2023-02-11T14:46:05;102827.28;;;8.92;63.62
64841;BME280;51307;52.162;7.560;2023-02-11T14:48:37;102834.13;;;8.82;63.71
64841;BME280;51307;52.162;7.560;2023-02-11T14:51:12;102829.06;;;8.77;63.96
64841;BME280;51307;52.162;7.560;2023-02-11T14:53:45;102841.00;;;8.71;64.03
64841;BME280;51307;52.162;7.560;2023-02-11T14:56:25;102838.06;;;8.76;63.91
64841;BME280;51307;52.162;7.560;2023-02-11T14:58:53;102839.53;;;9.09;63.02
64841;BME280;51307;52.162;7.560;2023-02-11T15:03:51;102844.03;;;8.80;63.61
64841;BME280;51307;52.162;7.560;2023-02-11T15:06:35;102832.63;;;8.78;63.68
64841;BME280;51307;52.162;7.560;2023-02-11T15:09:06;102837.50;;;8.85;63.51
64841;BME280;51307;52.162;7.560;2023-02-11T15:11:40;102841.69;;;8.89;63.71
64841;BME280;51307;52.162;7.560;2023-02-11T15:14:22;102841.59;;;8.91;63.43
64841;BME280;51307;52.162;7.560;2023-02-11T15:16:51;102843.28;;;8.78;63.83
64841;BME280;51307;52.162;7.560;2023-02-11T15:19:23;102835.75;;;8.84;63.90
64841;BME280;51307;52.162;7.560;2023-02-11T15:21:51;102845.72;;;8.53;64.54
64841;BME280;51307;52.162;7.560;2023-02-11T15:24:21;102841.22;;;8.68;64.39
64841;BME280;51307;52.162;7.560;2023-02-11T15:27:02;102845.50;;;8.71;64.28
64841;BME280;51307;52.162;7.560;2023-02-11T15:29:35;102841.69;;;8.75;63.78
64841;BME280;51307;52.162;7.560;2023-02-11T15:32:21;102848.22;;;8.98;63.51
64841;BME280;51307;52.162;7.560;2023-02-11T15:34:50;102865.97;;;8.70;64.35
64841;BME280;51307;52.162;7.560;2023-02-11T15:37:23;102854.34;;;9.00;63.41
64841;BME280;51307;52.162;7.560;2023-02-11T15:39:50;102857.09;;;8.84;63.72
64841;BME280;51307;52.162;7.560;2023-02-11T15:42:23;102858.16;;;8.82;63.95
64841;BME280;51307;52.162;7.560;2023-02-11T15:45:20;102867.22;;;8.65;64.48
64841;BME280;51307;52.162;7.560;2023-02-11T15:47:51;102867.72;;;8.57;64.54
64841;BME280;51307;52.162;7.560;2023-02-11T15:50:26;102864.47;;;8.66;64.44
64841;BME280;51307;52.162;7.560;2023-02-11T15:52:55;102864.66;;;8.63;64.58
64841;BME280;51307;52.162;7.560;2023-02-11T15:55:22;102867.91;;;8.54;64.90